createdAt,value
2022-09-07T00:01:19.917Z,1015.08136
2022-09-07T00:02:22.897Z,1015.068237
2022-09-07T00:03:20.614Z,1015.075684
2022-09-07T00:04:18.013Z,1015.121277
2022-09-07T00:05:25.752Z,1015.103882
2022-09-07T00:06:20.915Z,1015.035706
2022-09-07T00:07:21.619Z,1015.174316
2022-09-07T00:08:20.806Z,1015.185303
2022-09-07T00:09:18.154Z,1015.109924
2022-09-07T00:10:16.518Z,1015.139343
2022-09-07T00:11:11.561Z,1015.205261
2022-09-07T00:12:10.590Z,1015.181458
2022-09-07T00:13:08.368Z,1015.134583
2022-09-07T00:14:10.466Z,1015.239014
2022-09-07T00:15:04.700Z,1015.194641
2022-09-07T00:16:03.802Z,1015.171448
2022-09-07T00:17:00.149Z,1015.237122
2022-09-07T00:18:35.250Z,1015.112183
2022-09-07T00:20:59.253Z,1015.030273
2022-09-07T00:21:38.829Z,1014.934448
2022-09-07T00:22:37.521Z,1015.003906
2022-09-07T00:23:41.317Z,1014.975159
2022-09-07T00:24:35.545Z,1014.961609
2022-09-07T00:26:31.467Z,1014.965332
2022-09-07T00:27:32.572Z,1014.999207
2022-09-07T00:28:29.910Z,1014.974487
2022-09-07T00:29:27.881Z,1015.047546
2022-09-07T00:30:23.357Z,1014.995361
2022-09-07T00:31:22.394Z,1015.084534
2022-09-07T00:32:15.947Z,1015.118774
2022-09-07T00:33:17.882Z,1015.141541
2022-09-07T00:34:11.362Z,1015.245972
2022-09-07T00:35:09.291Z,1015.292053
2022-09-07T00:36:04.468Z,1015.307922
2022-09-07T00:37:02.881Z,1015.311768
2022-09-07T00:37:57.119Z,1015.404785
2022-09-07T00:38:59.170Z,1015.443481
2022-09-07T00:41:01.692Z,1015.446045
2022-09-07T00:41:53.380Z,1015.324951
2022-09-07T00:42:55.134Z,1015.374878
2022-09-07T00:43:50.364Z,1015.261658
2022-09-07T00:44:48.592Z,1015.295898
2022-09-07T00:46:53.212Z,1015.244812
2022-09-07T00:47:47.451Z,1015.275757
2022-09-07T00:48:51.152Z,1015.205444
2022-09-07T00:49:44.325Z,1015.212463
2022-09-07T00:51:36.043Z,1015.150513
2022-09-07T00:52:33.010Z,1015.064575
2022-09-07T00:53:31.955Z,1015.098694
2022-09-07T00:55:28.602Z,1015.080444
2022-09-07T00:56:16.953Z,1015.120239
2022-09-07T00:57:17.875Z,1015.103149
2022-09-07T00:58:19.314Z,1015.041626
2022-09-07T00:59:13.588Z,1015.082703
2022-09-07T01:01:20.234Z,1015.02887
2022-09-07T01:02:26.036Z,1015.097717
2022-09-07T01:03:25.102Z,1015.092224
2022-09-07T01:04:28.082Z,1015.082886
2022-09-07T01:06:31.777Z,1015.110901
2022-09-07T01:07:37.409Z,1015.156494
2022-09-07T01:08:32.698Z,1015.085327
2022-09-07T01:09:35.792Z,1015.029846
2022-09-07T01:10:36.494Z,1015.006287
2022-09-07T01:11:40.212Z,1014.98938
2022-09-07T01:12:39.488Z,1014.97345
2022-09-07T01:13:42.208Z,1014.895569
2022-09-07T01:14:41.089Z,1014.87677
2022-09-07T01:16:36.486Z,1014.764282
2022-09-07T01:17:35.920Z,1014.663452
2022-09-07T01:18:38.138Z,1014.687256
2022-09-07T01:19:32.342Z,1014.5401
2022-09-07T01:20:37.305Z,1014.533203
2022-09-07T01:21:28.950Z,1014.54541
2022-09-07T01:22:28.827Z,1014.557922
2022-09-07T01:23:25.385Z,1014.5
2022-09-07T01:24:22.936Z,1014.504456
2022-09-07T01:26:19.545Z,1014.575195
2022-09-07T01:27:21.347Z,1014.626404
2022-09-07T01:28:44.625Z,1014.700989
2022-09-07T01:29:25.203Z,1014.733215
2022-09-07T01:30:22.573Z,1014.695862
2022-09-07T01:31:22.747Z,1014.642578
2022-09-07T01:32:18.198Z,1014.631165
2022-09-07T01:33:19.757Z,1014.576843
2022-09-07T01:34:15.025Z,1014.4953
2022-09-07T01:35:15.296Z,1014.511047
2022-09-07T01:36:11.911Z,1014.507446
2022-09-07T01:37:13.418Z,1014.445313
2022-09-07T01:38:12.781Z,1014.461121
2022-09-07T01:39:15.413Z,1014.539063
2022-09-07T01:40:09.750Z,1014.45813
2022-09-07T01:41:09.633Z,1014.470947
2022-09-07T01:42:04.783Z,1014.385437
2022-09-07T01:43:04.549Z,1014.312256
2022-09-07T01:44:00.369Z,1014.374023
2022-09-07T01:45:09.223Z,1014.157837
2022-09-07T01:46:07.240Z,1014.157837
2022-09-07T01:47:07.246Z,1014.130615
2022-09-07T01:48:09.711Z,1014.091553
2022-09-07T01:49:06.682Z,1014.192566
2022-09-07T01:51:03.493Z,1014.267151
2022-09-07T01:52:06.237Z,1014.286255
2022-09-07T01:53:01.449Z,1014.247742
2022-09-07T01:54:06.833Z,1014.205811
2022-09-07T01:56:05.979Z,1014.191711
2022-09-07T01:57:29.562Z,1014.071655
2022-09-07T01:58:10.385Z,1014.088196
2022-09-07T01:59:10.924Z,1014.045654
2022-09-07T02:01:07.390Z,1013.983887
2022-09-07T02:02:10.091Z,1014.04126
2022-09-07T02:03:05.561Z,1013.936523
2022-09-07T02:04:06.065Z,1014.018127
2022-09-07T02:05:04.071Z,1013.998352
2022-09-07T02:06:04.638Z,1013.998352
2022-09-07T02:07:00.912Z,1013.943909
2022-09-07T02:08:03.054Z,1013.998352
2022-09-07T02:09:03.900Z,1013.835144
2022-09-07T02:11:08.942Z,1013.793457
2022-09-07T02:12:04.370Z,1013.761902
2022-09-07T02:13:02.841Z,1013.739075
2022-09-07T02:14:11.227Z,1013.742126
2022-09-07T02:16:10.739Z,1013.727661
2022-09-07T02:17:13.799Z,1013.684692
2022-09-07T02:18:13.834Z,1013.714905
2022-09-07T02:19:09.235Z,1013.680359
2022-09-07T02:20:11.553Z,1013.766296
2022-09-07T02:21:11.065Z,1013.766296
2022-09-07T02:22:17.514Z,1013.80481
2022-09-07T02:23:17.839Z,1013.73468
2022-09-07T02:24:10.415Z,1013.70752
2022-09-07T02:26:05.864Z,1013.646057
2022-09-07T02:27:10.292Z,1013.668884
2022-09-07T02:28:56.493Z,1013.63208
2022-09-07T02:29:37.693Z,1013.566223
2022-09-07T02:30:38.450Z,1013.56665
2022-09-07T02:31:41.309Z,1013.508606
2022-09-07T02:32:40.381Z,1013.567322
2022-09-07T02:33:41.449Z,1013.513
2022-09-07T02:34:41.526Z,1013.492859
2022-09-07T02:36:46.510Z,1013.457397
2022-09-07T02:37:47.549Z,1013.499207
2022-09-07T02:38:49.318Z,1013.530334
2022-09-07T02:39:48.911Z,1013.482849
2022-09-07T02:41:48.730Z,1013.50177
2022-09-07T02:42:45.105Z,1013.583374
2022-09-07T02:43:46.214Z,1013.494446
2022-09-07T02:44:45.432Z,1013.424133
2022-09-07T02:45:50.751Z,1013.489929
2022-09-07T02:46:47.029Z,1013.431152
2022-09-07T02:47:47.971Z,1013.353394
2022-09-07T02:48:46.408Z,1013.348877
2022-09-07T02:49:49.975Z,1013.414734
2022-09-07T02:51:51.157Z,1013.263
2022-09-07T02:52:53.237Z,1013.328796
2022-09-07T02:53:51.606Z,1013.32782
2022-09-07T02:54:54.474Z,1013.32782
2022-09-07T02:56:54.263Z,1013.284851
2022-09-07T02:57:54.351Z,1013.304321
2022-09-07T02:58:52.726Z,1013.357605
2022-09-07T02:59:54.563Z,1013.322754
2022-09-07T03:02:18.025Z,1013.263977
2022-09-07T03:03:00.494Z,1013.225403
2022-09-07T03:04:04.692Z,1013.29187
2022-09-07T03:06:07.583Z,1013.272827
2022-09-07T03:07:03.862Z,1013.276123
2022-09-07T03:08:04.014Z,1013.252625
2022-09-07T03:08:59.790Z,1013.245056
2022-09-07T03:10:02.792Z,1013.342529
2022-09-07T03:10:59.389Z,1013.303223
2022-09-07T03:12:00.873Z,1013.318237
2022-09-07T03:12:56.480Z,1013.411377
2022-09-07T03:13:58.068Z,1013.333679
2022-09-07T03:14:56.883Z,1013.442444
2022-09-07T03:16:55.094Z,1013.349487
2022-09-07T03:17:56.566Z,1013.243896
2022-09-07T03:18:54.910Z,1013.31781
2022-09-07T03:20:05.424Z,1013.325378
2022-09-07T03:21:09.672Z,1013.296265
2022-09-07T03:22:05.767Z,1013.313049
2022-09-07T03:23:10.973Z,1013.250671
2022-09-07T03:24:11.521Z,1013.300598
2022-09-07T03:26:13.718Z,1013.303345
2022-09-07T03:27:17.295Z,1013.345581
2022-09-07T03:28:20.311Z,1013.368286
2022-09-07T03:29:22.389Z,1013.3526
2022-09-07T03:30:30.344Z,1013.383728
2022-09-07T03:31:26.467Z,1013.297668
2022-09-07T03:32:26.003Z,1013.266113
2022-09-07T03:33:30.249Z,1013.339355
2022-09-07T03:34:33.161Z,1013.292542
2022-09-07T03:35:35.795Z,1013.33197
2022-09-07T03:36:31.606Z,1013.35907
2022-09-07T03:37:31.504Z,1013.343262
2022-09-07T03:38:33.909Z,1013.346863
2022-09-07T03:39:52.551Z,1013.325378
2022-09-07T03:41:47.057Z,1013.344421
2022-09-07T03:43:31.342Z,1013.282349
2022-09-07T03:44:33.883Z,1013.301819
2022-09-07T03:46:29.590Z,1013.295715
2022-09-07T03:47:24.781Z,1013.380554
2022-09-07T03:48:25.556Z,1013.328796
2022-09-07T03:49:21.961Z,1013.304321
2022-09-07T03:51:17.027Z,1013.338013
2022-09-07T03:52:17.222Z,1013.434082
2022-09-07T03:53:12.941Z,1013.441101
2022-09-07T03:54:15.762Z,1013.405151
2022-09-07T03:55:09.947Z,1013.393799
2022-09-07T03:56:18.814Z,1013.370483
2022-09-07T03:57:15.479Z,1013.323181
2022-09-07T03:58:11.622Z,1013.323181
2022-09-07T03:59:13.912Z,1013.338135
2022-09-07T04:01:17.074Z,1013.333801
2022-09-07T04:02:15.207Z,1013.399414
2022-09-07T04:03:11.758Z,1013.44574
2022-09-07T04:04:11.694Z,1013.395142
2022-09-07T04:05:06.231Z,1013.449463
2022-09-07T04:06:07.615Z,1013.433289
2022-09-07T04:07:01.915Z,1013.471985
2022-09-07T04:08:00.615Z,1013.44812
2022-09-07T04:08:56.880Z,1013.444214
2022-09-07T04:09:56.178Z,1013.46698
2022-09-07T04:10:54.266Z,1013.435913
2022-09-07T04:11:55.409Z,1013.396851
2022-09-07T04:12:49.946Z,1013.408264
2022-09-07T04:13:52.511Z,1013.435486
2022-09-07T04:14:45.285Z,1013.438477
2022-09-07T04:15:53.911Z,1013.415771
2022-09-07T04:16:55.071Z,1013.372742
2022-09-07T04:17:47.163Z,1013.396851
2022-09-07T04:18:50.117Z,1013.349976
2022-09-07T04:19:51.728Z,1013.369751
2022-09-07T04:20:53.129Z,1013.392944
2022-09-07T04:22:19.258Z,1013.396851
2022-09-07T04:23:01.729Z,1013.338684
2022-09-07T04:24:02.582Z,1013.319763
2022-09-07T04:24:58.223Z,1013.338684
2022-09-07T04:26:00.744Z,1013.28125
2022-09-07T04:26:57.405Z,1013.322815
2022-09-07T04:28:02.637Z,1013.329834
2022-09-07T04:28:58.248Z,1013.379822
2022-09-07T04:29:58.947Z,1013.340759
2022-09-07T04:30:56.236Z,1013.402466
2022-09-07T04:31:56.631Z,1013.336365
2022-09-07T04:32:52.115Z,1013.390625
2022-09-07T04:33:56.689Z,1013.324219
2022-09-07T04:34:51.037Z,1013.292542
2022-09-07T04:36:49.026Z,1013.273132
2022-09-07T04:37:48.180Z,1013.323059
2022-09-07T04:38:44.729Z,1013.323059
2022-09-07T04:39:48.207Z,1013.345703
2022-09-07T04:41:46.940Z,1013.330017
2022-09-07T04:42:42.366Z,1013.306458
2022-09-07T04:43:44.212Z,1013.337036
2022-09-07T04:44:44.400Z,1013.305359
2022-09-07T04:45:45.990Z,1013.294006
2022-09-07T04:46:41.203Z,1013.243286
2022-09-07T04:47:47.027Z,1013.265991
2022-09-07T04:48:44.641Z,1013.35144
2022-09-07T04:49:42.595Z,1013.378601
2022-09-07T04:51:37.702Z,1013.309875
2022-09-07T04:52:38.001Z,1013.302063
2022-09-07T04:53:37.201Z,1013.329163
2022-09-07T04:54:37.225Z,1013.371033
2022-09-07T04:55:34.196Z,1013.2547
2022-09-07T04:56:37.488Z,1013.261597
2022-09-07T04:57:31.716Z,1013.322876
2022-09-07T04:58:29.560Z,1013.338135
2022-09-07T04:59:30.286Z,1013.33374
2022-09-07T05:01:35.243Z,1013.320984
2022-09-07T05:02:27.334Z,1013.297791
2022-09-07T05:03:33.144Z,1013.289856
2022-09-07T05:05:27.300Z,1013.375183
2022-09-07T05:06:48.756Z,1013.259094
2022-09-07T05:07:52.450Z,1013.314148
2022-09-07T05:08:51.309Z,1013.325623
2022-09-07T05:09:48.467Z,1013.289551
2022-09-07T05:11:44.943Z,1013.338745
2022-09-07T05:12:45.904Z,1013.349548
2022-09-07T05:13:41.171Z,1013.367798
2022-09-07T05:14:42.963Z,1013.339783
2022-09-07T05:16:37.457Z,1013.420105
2022-09-07T05:17:37.651Z,1013.369446
2022-09-07T05:18:38.979Z,1013.400024
2022-09-07T05:19:36.947Z,1013.430664
2022-09-07T05:20:41.208Z,1013.414917
2022-09-07T05:21:33.811Z,1013.378906
2022-09-07T05:22:36.696Z,1013.460327
2022-09-07T05:23:32.418Z,1013.344116
2022-09-07T05:24:33.930Z,1013.35553
2022-09-07T05:25:32.386Z,1013.417297
2022-09-07T05:26:28.477Z,1013.467224
2022-09-07T05:27:28.228Z,1013.421265
2022-09-07T05:28:26.309Z,1013.412964
2022-09-07T05:31:27.128Z,1013.387207
2022-09-07T05:32:24.551Z,1013.457886
2022-09-07T05:33:19.288Z,1013.411255
2022-09-07T05:35:19.524Z,1013.468567
2022-09-07T05:36:20.779Z,1013.351685
2022-09-07T05:37:20.879Z,1013.455811
2022-09-07T05:38:19.549Z,1013.486877
2022-09-07T05:39:19.666Z,1013.446899
2022-09-07T05:40:14.403Z,1013.523987
2022-09-07T05:41:18.065Z,1013.473572
2022-09-07T05:42:12.808Z,1013.49231
2022-09-07T05:43:21.149Z,1013.438049
2022-09-07T05:45:13.732Z,1013.46521
2022-09-07T05:47:40.890Z,1013.49823
2022-09-07T05:48:24.684Z,1013.52832
2022-09-07T05:49:24.077Z,1013.557007
2022-09-07T05:51:23.380Z,1013.471069
2022-09-07T05:52:23.810Z,1013.50116
2022-09-07T05:53:22.696Z,1013.527893
2022-09-07T05:54:25.581Z,1013.553955
2022-09-07T05:55:30.015Z,1013.584595
2022-09-07T05:55:30.433Z,1013.584595
2022-09-07T05:56:23.111Z,1013.59259
2022-09-07T05:57:22.873Z,1013.565369
2022-09-07T05:58:22.760Z,1013.638855
2022-09-07T05:59:18.553Z,1013.622986
2022-09-07T06:00:24.168Z,1013.664978
2022-09-07T06:01:19.404Z,1013.567627
2022-09-07T06:02:18.869Z,1013.555359
2022-09-07T06:03:14.136Z,1013.613159
2022-09-07T06:04:16.544Z,1013.67865
2022-09-07T06:05:11.912Z,1013.670715
2022-09-07T06:06:11.029Z,1013.589294
2022-09-07T06:07:21.670Z,1013.635803
2022-09-07T06:07:23.205Z,1013.635803
2022-09-07T06:07:24.123Z,1013.635803
2022-09-07T06:08:10.189Z,1013.605164
2022-09-07T06:09:05.402Z,1013.598267
2022-09-07T06:11:03.105Z,1013.567627
2022-09-07T06:12:07.308Z,1013.60376
2022-09-07T06:13:03.482Z,1013.552979
2022-09-07T06:14:06.087Z,1013.572205
2022-09-07T06:14:58.681Z,1013.555359
2022-09-07T06:16:03.836Z,1013.582458
2022-09-07T06:16:56.420Z,1013.570129
2022-09-07T06:17:57.042Z,1013.616455
2022-09-07T06:19:00.014Z,1013.534973
2022-09-07T06:20:03.239Z,1013.515015
2022-09-07T06:20:58.551Z,1013.580627
2022-09-07T06:22:01.113Z,1013.610718
2022-09-07T06:22:57.168Z,1013.594971
2022-09-07T06:23:57.799Z,1013.478943
2022-09-07T06:24:53.360Z,1013.571716
2022-09-07T06:25:50.645Z,1013.576233
2022-09-07T06:26:51.626Z,1013.560364
2022-09-07T06:27:15.238Z,1013.668823
2022-09-07T06:28:09.542Z,1013.64624
2022-09-07T06:29:08.364Z,1013.642334
2022-09-07T06:30:12.185Z,1013.662048
2022-09-07T06:31:05.636Z,1013.584778
2022-09-07T06:33:55.816Z,1013.619568
2022-09-07T06:34:54.043Z,1013.636841
2022-09-07T06:35:54.189Z,1013.618713
2022-09-07T06:36:50.358Z,1013.697083
2022-09-07T06:37:57.440Z,1013.700134
2022-09-07T06:38:50.254Z,1013.668518
2022-09-07T06:39:52.287Z,1013.7771
2022-09-07T06:40:47.783Z,1013.73407
2022-09-07T06:42:04.918Z,1013.788391
2022-09-07T06:43:35.882Z,1013.755188
2022-09-07T06:44:32.283Z,1013.785461
2022-09-07T06:45:33.568Z,1013.766785
2022-09-07T06:48:45.848Z,1013.78894
2022-09-07T06:49:08.591Z,1013.84082
2022-09-07T06:50:09.474Z,1013.749756
2022-09-07T06:51:06.005Z,1013.738525
2022-09-07T06:52:07.234Z,1013.846008
2022-09-07T06:55:01.786Z,1013.810059
2022-09-07T06:56:04.633Z,1013.84967
2022-09-07T06:57:02.855Z,1013.876892
2022-09-07T06:57:59.269Z,1013.848511
2022-09-07T06:59:00.475Z,1013.821289
2022-09-07T06:59:55.877Z,1013.825806
2022-09-07T07:00:56.783Z,1013.91864
2022-09-07T07:01:53.777Z,1013.887085
2022-09-07T07:02:56.924Z,1013.999329
2022-09-07T07:03:53.153Z,1013.967712
2022-09-07T07:04:53.295Z,1013.967712
2022-09-07T07:06:49.873Z,1013.978516
2022-09-07T07:07:45.055Z,1013.989868
2022-09-07T07:08:45.206Z,1014.055481
2022-09-07T07:09:40.737Z,1014.055481
2022-09-07T07:10:41.058Z,1014.078125
2022-09-07T07:11:36.630Z,1014.069885
2022-09-07T07:13:34.600Z,1014.116638
2022-09-07T07:14:39.638Z,1014.09021
2022-09-07T07:14:44.992Z,1014.09021
2022-09-07T07:16:28.841Z,1013.987915
2022-09-07T07:17:29.187Z,1014.031677
2022-09-07T07:18:24.665Z,1014.052002
2022-09-07T07:19:25.216Z,1014.040588
2022-09-07T07:20:20.908Z,1014.001953
2022-09-07T07:22:45.088Z,1014.049927
2022-09-07T07:22:45.504Z,1014.049927
2022-09-07T07:22:46.031Z,1014.049927
2022-09-07T07:23:22.503Z,1013.993164
2022-09-07T07:24:16.179Z,1014.031067
2022-09-07T07:25:19.845Z,1014.075256
2022-09-07T07:26:13.329Z,1014.091919
2022-09-07T07:27:14.387Z,1013.999878
2022-09-07T07:29:10.443Z,1014.056091
2022-09-07T07:30:11.766Z,1014.080078
2022-09-07T07:31:12.042Z,1014.034607
2022-09-07T07:31:13.456Z,1014.034607
2022-09-07T07:32:12.281Z,1014.097778
2022-09-07T07:33:07.300Z,1014.140747
2022-09-07T07:34:06.361Z,1014.148743
2022-09-07T07:35:04.474Z,1014.17926
2022-09-07T07:37:00.810Z,1014.233704
2022-09-07T07:40:21.403Z,1014.142944
2022-09-07T07:40:26.441Z,1014.142944
2022-09-07T07:41:56.451Z,1014.169983
2022-09-07T07:42:03.119Z,1014.169983
2022-09-07T07:42:05.728Z,1014.169983
2022-09-07T07:42:34.006Z,1014.144531
2022-09-07T07:43:33.986Z,1014.169128
2022-09-07T07:44:30.258Z,1014.169495
2022-09-07T07:45:56.782Z,1014.126526
2022-09-07T07:46:28.140Z,1014.194031
2022-09-07T07:47:28.426Z,1014.292114
2022-09-07T07:49:24.983Z,1014.214172
2022-09-07T07:50:31.079Z,1014.275635
2022-09-07T07:50:33.157Z,1014.275635
2022-09-07T07:50:35.523Z,1014.275635
2022-09-07T07:53:41.900Z,1014.358032
2022-09-07T07:54:14.512Z,1014.37146
2022-09-07T07:57:13.241Z,1014.359009
2022-09-07T07:58:09.716Z,1014.449219
2022-09-07T07:59:15.784Z,1014.344299
2022-09-07T08:00:12.721Z,1014.40741
2022-09-07T08:01:07.209Z,1014.373047
2022-09-07T08:02:07.883Z,1014.370422
2022-09-07T08:03:04.089Z,1014.36322
2022-09-07T08:04:04.826Z,1014.394836
2022-09-07T08:05:00.929Z,1014.46814
2022-09-07T08:06:59.913Z,1014.405701
2022-09-07T08:07:58.969Z,1014.374023
2022-09-07T08:08:54.340Z,1014.451355
2022-09-07T08:09:53.184Z,1014.384583
2022-09-07T08:11:49.437Z,1014.445374
2022-09-07T08:12:49.493Z,1014.49115
2022-09-07T08:13:44.646Z,1014.443665
2022-09-07T08:14:46.962Z,1014.548218
2022-09-07T08:15:39.591Z,1014.555298
2022-09-07T08:16:42.826Z,1014.520691
2022-09-07T08:17:35.559Z,1014.617249
2022-09-07T08:18:37.897Z,1014.566345
2022-09-07T08:19:31.271Z,1014.542725
2022-09-07T08:20:33.274Z,1014.557617
2022-09-07T08:21:31.669Z,1014.533997
2022-09-07T08:22:26.542Z,1014.553101
2022-09-07T08:23:26.682Z,1014.529297
2022-09-07T08:24:21.857Z,1014.652954
2022-09-07T08:25:21.345Z,1014.609985
2022-09-07T08:27:19.111Z,1014.601685
2022-09-07T08:28:11.986Z,1014.558777
2022-09-07T08:30:06.081Z,1014.559998
2022-09-07T08:31:46.211Z,1014.604919
2022-09-07T08:32:40.796Z,1014.608521
2022-09-07T08:33:37.942Z,1014.596191
2022-09-07T08:34:37.658Z,1014.708252
2022-09-07T08:35:33.024Z,1014.703918
2022-09-07T08:36:35.385Z,1014.745972
2022-09-07T08:37:28.051Z,1014.652222
2022-09-07T08:38:27.101Z,1014.652222
2022-09-07T08:39:27.807Z,1014.58197
2022-09-07T08:40:22.090Z,1014.577637
2022-09-07T08:41:19.298Z,1014.58197
2022-09-07T08:42:19.448Z,1014.547791
2022-09-07T08:43:14.513Z,1014.630127
2022-09-07T08:44:14.283Z,1014.602905
2022-09-07T08:45:09.570Z,1014.582764
2022-09-07T08:46:07.956Z,1014.466125
2022-09-07T08:47:06.679Z,1014.42749
2022-09-07T08:48:01.778Z,1014.385254
2022-09-07T08:49:04.712Z,1014.327332
2022-09-07T08:49:57.428Z,1014.304749
2022-09-07T08:51:54.920Z,1014.278381
2022-09-07T08:52:52.279Z,1014.262634
2022-09-07T08:53:54.101Z,1014.286377
2022-09-07T08:54:47.240Z,1014.430237
2022-09-07T08:55:44.690Z,1014.302002
2022-09-07T08:57:20.598Z,1014.345154
2022-09-07T08:57:40.424Z,1014.360413
2022-09-07T08:58:49.196Z,1014.404724
2022-09-07T08:58:50.398Z,1014.404724
2022-09-07T08:58:51.975Z,1014.404724
2022-09-07T08:59:37.622Z,1014.479614
2022-09-07T09:01:34.003Z,1014.721863
2022-09-07T09:02:42.555Z,1014.675293
2022-09-07T09:02:44.007Z,1014.675293
2022-09-07T09:02:44.570Z,1014.675293
2022-09-07T09:03:32.414Z,1014.628784
2022-09-07T09:04:28.464Z,1014.692017
2022-09-07T09:05:27.257Z,1014.649658
2022-09-07T09:06:23.509Z,1014.638306
2022-09-07T09:07:22.982Z,1014.638306
2022-09-07T09:08:19.381Z,1014.599609
2022-09-07T09:09:22.131Z,1014.697083
2022-09-07T09:10:14.667Z,1014.73999
2022-09-07T09:12:09.622Z,1014.678467
2022-09-07T09:13:09.664Z,1014.685974
2022-09-07T09:14:12.037Z,1014.577026
2022-09-07T09:15:06.933Z,1014.615845
2022-09-07T09:16:47.399Z,1014.62439
2022-09-07T09:17:24.740Z,1014.664673
2022-09-07T09:18:32.732Z,1014.736511
2022-09-07T09:19:23.361Z,1014.756958
2022-09-07T09:20:19.539Z,1014.746216
2022-09-07T09:22:15.051Z,1014.711792
2022-09-07T09:23:15.385Z,1014.74707
2022-09-07T09:24:11.166Z,1014.716125
2022-09-07T09:25:11.612Z,1014.76355
2022-09-07T09:27:09.260Z,1014.663879
2022-09-07T09:28:05.846Z,1014.680847
2022-09-07T09:29:07.115Z,1014.646667
2022-09-07T09:30:03.549Z,1014.636658
2022-09-07T09:31:04.819Z,1014.625732
2022-09-07T09:32:01.266Z,1014.599976
2022-09-07T09:33:02.272Z,1014.604492
2022-09-07T09:33:58.572Z,1014.566284
2022-09-07T09:34:56.709Z,1014.559143
2022-09-07T09:36:53.138Z,1014.664551
2022-09-07T09:37:51.352Z,1014.590576
2022-09-07T09:38:49.203Z,1014.621704
2022-09-07T09:39:54.467Z,1014.570679
2022-09-07T09:39:59.262Z,1014.570679
2022-09-07T09:40:46.166Z,1014.5979
2022-09-07T09:41:44.853Z,1014.657471
2022-09-07T09:42:42.579Z,1014.552673
2022-09-07T09:43:40.944Z,1014.568481
2022-09-07T09:44:38.846Z,1014.529602
2022-09-07T09:46:12.379Z,1014.568481
2022-09-07T09:46:35.473Z,1014.619568
2022-09-07T09:47:33.676Z,1014.624878
2022-09-07T09:48:32.077Z,1014.609375
2022-09-07T09:49:29.385Z,1014.652344
2022-09-07T09:52:30.725Z,1014.716125
2022-09-07T09:52:33.587Z,1014.716125
2022-09-07T09:52:44.933Z,1014.716125
2022-09-07T09:53:29.423Z,1014.631775
2022-09-07T09:54:22.925Z,1014.628784
2022-09-07T09:55:34.994Z,1014.601563
2022-09-07T09:55:40.906Z,1014.601563
2022-09-07T09:57:19.321Z,1014.633057
2022-09-07T10:00:21.340Z,1014.656982
2022-09-07T10:00:28.028Z,1014.656982
2022-09-07T10:00:29.308Z,1014.656982
2022-09-07T10:04:09.490Z,1014.594238
2022-09-07T10:04:14.601Z,1014.594238
2022-09-07T10:04:18.358Z,1014.594238
2022-09-07T10:05:59.758Z,1014.631165
2022-09-07T10:06:37.239Z,1014.658936
2022-09-07T10:07:35.179Z,1014.690002
2022-09-07T10:08:34.756Z,1014.740173
2022-09-07T10:09:31.361Z,1014.742249
2022-09-07T10:10:29.574Z,1014.745117
2022-09-07T10:12:22.605Z,1014.763306
2022-09-07T10:13:23.724Z,1014.747742
2022-09-07T10:14:18.319Z,1014.77478
2022-09-07T10:15:17.902Z,1014.78949
2022-09-07T10:16:12.444Z,1014.855286
2022-09-07T10:17:11.919Z,1014.815491
2022-09-07T10:18:06.518Z,1014.885559
2022-09-07T10:19:06.010Z,1014.811035
2022-09-07T10:20:00.581Z,1014.822144
2022-09-07T10:21:55.250Z,1014.825256
2022-09-07T10:22:57.049Z,1014.844604
2022-09-07T10:23:49.299Z,1014.762878
2022-09-07T10:24:51.121Z,1014.836609
2022-09-07T10:26:43.015Z,1014.676697
2022-09-07T10:27:37.905Z,1014.782166
2022-09-07T10:29:17.293Z,1014.76593
2022-09-07T10:29:33.107Z,1014.754272
2022-09-07T10:30:33.099Z,1014.75061
2022-09-07T10:32:29.648Z,1014.703979
2022-09-07T10:33:21.975Z,1014.808777
2022-09-07T10:34:26.675Z,1014.781555
2022-09-07T10:34:28.432Z,1014.781555
2022-09-07T10:35:21.303Z,1014.785583
2022-09-07T10:36:16.659Z,1014.831848
2022-09-07T10:37:11.260Z,1014.789429
2022-09-07T10:38:09.202Z,1014.781555
2022-09-07T10:39:08.311Z,1014.847595
2022-09-07T10:40:02.892Z,1014.854797
2022-09-07T10:41:04.786Z,1014.854797
2022-09-07T10:41:57.490Z,1014.847412
2022-09-07T10:43:22.590Z,1014.863159
2022-09-07T10:43:52.829Z,1014.847595
2022-09-07T10:44:52.389Z,1014.894897
2022-09-07T10:45:47.712Z,1014.902222
2022-09-07T10:46:57.163Z,1014.855408
2022-09-07T10:46:58.920Z,1014.855408
2022-09-07T10:47:01.895Z,1014.855408
2022-09-07T10:47:44.152Z,1014.863403
2022-09-07T10:48:38.730Z,1014.894897
2022-09-07T10:50:22.296Z,1014.872437
2022-09-07T10:50:23.728Z,1014.872437
2022-09-07T10:53:41.331Z,1014.912659
2022-09-07T10:55:35.395Z,1014.901855
2022-09-07T10:57:16.251Z,1014.846558
2022-09-07T10:58:12.944Z,1014.822266
2022-09-07T10:59:13.462Z,1014.879944
2022-09-07T11:00:13.223Z,1014.839783
2022-09-07T11:01:09.201Z,1014.849976
2022-09-07T11:02:11.486Z,1014.87677
2022-09-07T11:03:27.597Z,1014.81366
2022-09-07T11:03:32.380Z,1014.81366
2022-09-07T11:04:05.574Z,1014.840942
2022-09-07T11:05:07.583Z,1014.871826
2022-09-07T11:06:03.580Z,1014.832397
2022-09-07T11:07:12.408Z,1014.77002
2022-09-07T11:07:15.601Z,1014.77002
2022-09-07T11:08:06.679Z,1014.820374
2022-09-07T11:09:16.617Z,1014.797363
2022-09-07T11:09:18.373Z,1014.797363
2022-09-07T11:09:22.311Z,1014.797363
2022-09-07T11:10:00.497Z,1014.790161
2022-09-07T11:12:01.562Z,1014.762878
2022-09-07T11:12:04.074Z,1014.762878
2022-09-07T11:12:56.226Z,1014.786377
2022-09-07T11:14:11.849Z,1014.77063
2022-09-07T11:14:12.602Z,1014.77063
2022-09-07T11:14:13.045Z,1014.77063
2022-09-07T11:14:53.101Z,1014.693054
2022-09-07T11:15:49.444Z,1014.747681
2022-09-07T11:16:51.185Z,1014.763367
2022-09-07T11:17:49.334Z,1014.665833
2022-09-07T11:17:53.140Z,1014.665833
2022-09-07T11:18:48.763Z,1014.736084
2022-09-07T11:19:42.076Z,1014.67804
2022-09-07T11:20:41.877Z,1014.716736
2022-09-07T11:22:35.562Z,1014.67804
2022-09-07T11:23:40.766Z,1014.678894
2022-09-07T11:23:41.107Z,1014.678894
2022-09-07T11:24:34.417Z,1014.655884
2022-09-07T11:25:30.039Z,1014.706177
2022-09-07T11:27:25.451Z,1014.671082
2022-09-07T11:28:25.738Z,1014.628052
2022-09-07T11:29:29.557Z,1014.685913
2022-09-07T11:29:29.980Z,1014.685913
2022-09-07T11:30:24.280Z,1014.685791
2022-09-07T11:32:22.667Z,1014.628052
2022-09-07T11:33:15.957Z,1014.620117
2022-09-07T11:34:24.334Z,1014.655396
2022-09-07T11:34:25.855Z,1014.655396
2022-09-07T11:35:14.302Z,1014.624329